sensor_id;sensor_type;location;lat;lon;timestamp;P1;durP1;ratioP1;P2;durP2;ratioP2
11024;SDS011;22890;51.820;8.682;2022-08-01T00:00:02;11.77;;;9.30;;
11024;SDS011;22890;51.820;8.682;2022-08-01T00:02:34;14.33;;;9.47;;
11024;SDS011;22890;51.820;8.682;2022-08-01T00:05:01;12.90;;;9.10;;
11024;SDS011;22890;51.820;8.682;2022-08-01T00:07:27;12.07;;;10.03;;
11024;SDS011;22890;51.820;8.682;2022-08-01T00:09:54;16.60;;;9.50;;
11024;SDS011;22890;51.820;8.682;2022-08-01T00:12:21;13.77;;;10.00;;
11024;SDS011;22890;51.820;8.682;2022-08-01T00:14:47;20.43;;;10.47;;
11024;SDS011;22890;51.820;8.682;2022-08-01T00:17:14;13.37;;;10.23;;
11024;SDS011;22890;51.820;8.682;2022-08-01T00:19:41;13.40;;;10.37;;
11024;SDS011;22890;51.820;8.682;2022-08-01T00:22:07;13.30;;;9.63;;
11024;SDS011;22890;51.820;8.682;2022-08-01T00:24:35;14.70;;;10.30;;
11024;SDS011;22890;51.820;8.682;2022-08-01T00:27:01;12.20;;;9.97;;
11024;SDS011;22890;51.820;8.682;2022-08-01T00:29:28;12.17;;;9.77;;
11024;SDS011;22890;51.820;8.682;2022-08-01T00:32:15;13.03;;;9.50;;
11024;SDS011;22890;51.820;8.682;2022-08-01T00:34:41;14.83;;;10.13;;
11024;SDS011;22890;51.820;8.682;2022-08-01T00:37:08;15.03;;;9.60;;
11024;SDS011;22890;51.820;8.682;2022-08-01T00:39:39;14.20;;;10.47;;
11024;SDS011;22890;51.820;8.682;2022-08-01T00:42:06;14.40;;;10.53;;
11024;SDS011;22890;51.820;8.682;2022-08-01T00:44:34;13.23;;;9.33;;
11024;SDS011;22890;51.820;8.682;2022-08-01T00:47:01;15.03;;;9.60;;
11024;SDS011;22890;51.820;8.682;2022-08-01T00:49:28;13.10;;;10.00;;
11024;SDS011;22890;51.820;8.682;2022-08-01T00:51:55;15.83;;;11.20;;
11024;SDS011;22890;51.820;8.682;2022-08-01T00:54:23;16.63;;;11.13;;
11024;SDS011;22890;51.820;8.682;2022-08-01T00:56:51;18.53;;;11.40;;
11024;SDS011;22890;51.820;8.682;2022-08-01T00:59:19;15.00;;;10.50;;
11024;SDS011;22890;51.820;8.682;2022-08-01T01:01:48;15.70;;;11.87;;
11024;SDS011;22890;51.820;8.682;2022-08-01T01:04:17;15.20;;;11.37;;
11024;SDS011;22890;51.820;8.682;2022-08-01T01:12:22;13.37;;;11.57;;
11024;SDS011;22890;51.820;8.682;2022-08-01T01:17:54;17.17;;;11.03;;
11024;SDS011;22890;51.820;8.682;2022-08-01T01:20:45;15.00;;;11.50;;
11024;SDS011;22890;51.820;8.682;2022-08-01T01:29:03;11.40;;;8.17;;
11024;SDS011;22890;51.820;8.682;2022-08-01T01:31:48;13.20;;;9.07;;
11024;SDS011;22890;51.820;8.682;2022-08-01T01:34:18;14.23;;;9.87;;
11024;SDS011;22890;51.820;8.682;2022-08-01T01:36:48;14.93;;;10.23;;
11024;SDS011;22890;51.820;8.682;2022-08-01T01:39:18;14.40;;;10.40;;
11024;SDS011;22890;51.820;8.682;2022-08-01T01:41:46;11.60;;;9.87;;
11024;SDS011;22890;51.820;8.682;2022-08-01T01:44:14;11.93;;;10.13;;
11024;SDS011;22890;51.820;8.682;2022-08-01T01:46:42;14.60;;;9.80;;
11024;SDS011;22890;51.820;8.682;2022-08-01T01:49:09;11.87;;;9.10;;
11024;SDS011;22890;51.820;8.682;2022-08-01T01:51:37;11.07;;;9.33;;
11024;SDS011;22890;51.820;8.682;2022-08-01T01:54:05;12.10;;;8.10;;
11024;SDS011;22890;51.820;8.682;2022-08-01T01:56:34;10.17;;;8.13;;
11024;SDS011;22890;51.820;8.682;2022-08-01T01:59:15;13.30;;;8.93;;
11024;SDS011;22890;51.820;8.682;2022-08-01T02:01:51;11.00;;;8.43;;
11024;SDS011;22890;51.820;8.682;2022-08-01T02:04:31;12.87;;;8.17;;
11024;SDS011;22890;51.820;8.682;2022-08-01T02:07:01;10.87;;;7.83;;
11024;SDS011;22890;51.820;8.682;2022-08-01T02:09:29;11.00;;;8.80;;
11024;SDS011;22890;51.820;8.682;2022-08-01T02:11:57;12.37;;;8.27;;
11024;SDS011;22890;51.820;8.682;2022-08-01T02:14:34;10.63;;;8.70;;
11024;SDS011;22890;51.820;8.682;2022-08-01T02:17:01;13.07;;;8.97;;
11024;SDS011;22890;51.820;8.682;2022-08-01T02:19:30;13.30;;;8.80;;
11024;SDS011;22890;51.820;8.682;2022-08-01T02:27:24;15.67;;;9.13;;
11024;SDS011;22890;51.820;8.682;2022-08-01T02:29:59;12.03;;;8.53;;
11024;SDS011;22890;51.820;8.682;2022-08-01T02:32:30;14.17;;;10.20;;
11024;SDS011;22890;51.820;8.682;2022-08-01T02:35:33;13.70;;;9.80;;
11024;SDS011;22890;51.820;8.682;2022-08-01T02:38:22;15.37;;;9.30;;
11024;SDS011;22890;51.820;8.682;2022-08-01T02:40:52;11.67;;;9.23;;
11024;SDS011;22890;51.820;8.682;2022-08-01T02:43:21;13.93;;;8.90;;
11024;SDS011;22890;51.820;8.682;2022-08-01T02:45:53;10.67;;;7.87;;
11024;SDS011;22890;51.820;8.682;2022-08-01T02:48:24;11.17;;;8.83;;
11024;SDS011;22890;51.820;8.682;2022-08-01T02:50:52;14.73;;;10.47;;
11024;SDS011;22890;51.820;8.682;2022-08-01T02:53:23;11.47;;;7.93;;
11024;SDS011;22890;51.820;8.682;2022-08-01T02:56:10;9.33;;;6.60;;
11024;SDS011;22890;51.820;8.682;2022-08-01T02:58:38;9.27;;;6.30;;
11024;SDS011;22890;51.820;8.682;2022-08-01T03:01:07;12.37;;;6.57;;
11024;SDS011;22890;51.820;8.682;2022-08-01T03:03:36;11.97;;;5.90;;
11024;SDS011;22890;51.820;8.682;2022-08-01T03:06:03;10.30;;;6.30;;
11024;SDS011;22890;51.820;8.682;2022-08-01T03:08:31;9.83;;;6.03;;
11024;SDS011;22890;51.820;8.682;2022-08-01T03:11:00;8.73;;;6.30;;
11024;SDS011;22890;51.820;8.682;2022-08-01T03:13:27;8.40;;;6.17;;
11024;SDS011;22890;51.820;8.682;2022-08-01T03:15:57;10.27;;;7.57;;
11024;SDS011;22890;51.820;8.682;2022-08-01T03:18:25;10.63;;;7.10;;
11024;SDS011;22890;51.820;8.682;2022-08-01T03:20:54;9.50;;;8.47;;
11024;SDS011;22890;51.820;8.682;2022-08-01T03:23:22;12.30;;;8.20;;
11024;SDS011;22890;51.820;8.682;2022-08-01T03:26:03;8.57;;;7.67;;
11024;SDS011;22890;51.820;8.682;2022-08-01T03:28:31;8.33;;;6.97;;
11024;SDS011;22890;51.820;8.682;2022-08-01T03:30:58;7.73;;;6.23;;
11024;SDS011;22890;51.820;8.682;2022-08-01T03:33:26;8.73;;;5.80;;
11024;SDS011;22890;51.820;8.682;2022-08-01T03:35:53;7.40;;;5.33;;
11024;SDS011;22890;51.820;8.682;2022-08-01T03:38:23;8.77;;;5.67;;
11024;SDS011;22890;51.820;8.682;2022-08-01T03:40:56;7.63;;;5.70;;
11024;SDS011;22890;51.820;8.682;2022-08-01T03:43:36;9.60;;;5.93;;
11024;SDS011;22890;51.820;8.682;2022-08-01T03:46:09;9.20;;;6.80;;
11024;SDS011;22890;51.820;8.682;2022-08-01T03:48:39;13.07;;;6.20;;
11024;SDS011;22890;51.820;8.682;2022-08-01T03:51:09;10.60;;;5.90;;
11024;SDS011;22890;51.820;8.682;2022-08-01T03:53:38;7.40;;;5.53;;
11024;SDS011;22890;51.820;8.682;2022-08-01T03:56:07;6.57;;;4.40;;
11024;SDS011;22890;51.820;8.682;2022-08-01T03:58:36;8.83;;;6.13;;
11024;SDS011;22890;51.820;8.682;2022-08-01T04:01:05;7.63;;;5.67;;
11024;SDS011;22890;51.820;8.682;2022-08-01T04:03:41;7.83;;;5.80;;
11024;SDS011;22890;51.820;8.682;2022-08-01T04:06:08;8.03;;;6.47;;
11024;SDS011;22890;51.820;8.682;2022-08-01T04:08:39;9.43;;;6.23;;
11024;SDS011;22890;51.820;8.682;2022-08-01T04:11:07;7.43;;;6.03;;
11024;SDS011;22890;51.820;8.682;2022-08-01T04:13:35;8.80;;;6.07;;
11024;SDS011;22890;51.820;8.682;2022-08-01T04:16:03;7.93;;;5.90;;
11024;SDS011;22890;51.820;8.682;2022-08-01T04:18:30;8.80;;;6.60;;
11024;SDS011;22890;51.820;8.682;2022-08-01T04:20:58;9.30;;;7.23;;
11024;SDS011;22890;51.820;8.682;2022-08-01T04:23:24;7.70;;;6.43;;
11024;SDS011;22890;51.820;8.682;2022-08-01T04:25:53;8.77;;;7.77;;
11024;SDS011;22890;51.820;8.682;2022-08-01T04:28:21;9.57;;;6.70;;
11024;SDS011;22890;51.820;8.682;2022-08-01T04:30:50;8.60;;;6.97;;
11024;SDS011;22890;51.820;8.682;2022-08-01T04:33:26;7.20;;;6.17;;
11024;SDS011;22890;51.820;8.682;2022-08-01T04:35:55;7.47;;;6.60;;
11024;SDS011;22890;51.820;8.682;2022-08-01T04:38:29;7.93;;;5.93;;
11024;SDS011;22890;51.820;8.682;2022-08-01T04:40:57;7.70;;;6.47;;
11024;SDS011;22890;51.820;8.682;2022-08-01T04:43:34;7.43;;;6.40;;
11024;SDS011;22890;51.820;8.682;2022-08-01T04:46:07;7.90;;;7.10;;
11024;SDS011;22890;51.820;8.682;2022-08-01T04:48:38;8.20;;;6.23;;
11024;SDS011;22890;51.820;8.682;2022-08-01T04:51:15;8.37;;;6.40;;
11024;SDS011;22890;51.820;8.682;2022-08-01T04:53:43;7.93;;;6.80;;
11024;SDS011;22890;51.820;8.682;2022-08-01T04:56:12;9.20;;;7.47;;
11024;SDS011;22890;51.820;8.682;2022-08-01T04:58:40;7.83;;;6.47;;
11024;SDS011;22890;51.820;8.682;2022-08-01T05:01:07;6.73;;;5.37;;
11024;SDS011;22890;51.820;8.682;2022-08-01T05:03:34;6.60;;;5.60;;
11024;SDS011;22890;51.820;8.682;2022-08-01T05:06:04;7.30;;;4.67;;
11024;SDS011;22890;51.820;8.682;2022-08-01T05:08:31;5.33;;;4.50;;
11024;SDS011;22890;51.820;8.682;2022-08-01T05:10:58;8.07;;;4.73;;
11024;SDS011;22890;51.820;8.682;2022-08-01T05:13:24;5.13;;;4.40;;
11024;SDS011;22890;51.820;8.682;2022-08-01T05:15:51;6.77;;;4.83;;
11024;SDS011;22890;51.820;8.682;2022-08-01T05:18:18;7.73;;;4.33;;
11024;SDS011;22890;51.820;8.682;2022-08-01T05:20:53;7.00;;;4.10;;
11024;SDS011;22890;51.820;8.682;2022-08-01T05:23:20;5.10;;;4.53;;
11024;SDS011;22890;51.820;8.682;2022-08-01T05:26:07;7.93;;;4.47;;
11024;SDS011;22890;51.820;8.682;2022-08-01T05:28:34;6.13;;;4.63;;
11024;SDS011;22890;51.820;8.682;2022-08-01T05:31:01;6.57;;;4.13;;
11024;SDS011;22890;51.820;8.682;2022-08-01T05:33:29;6.60;;;4.30;;
11024;SDS011;22890;51.820;8.682;2022-08-01T05:35:55;5.93;;;4.37;;
11024;SDS011;22890;51.820;8.682;2022-08-01T05:38:22;7.80;;;5.17;;
11024;SDS011;22890;51.820;8.682;2022-08-01T05:40:48;7.37;;;4.20;;
11024;SDS011;22890;51.820;8.682;2022-08-01T05:43:16;6.50;;;4.40;;
11024;SDS011;22890;51.820;8.682;2022-08-01T05:45:42;6.90;;;4.63;;
11024;SDS011;22890;51.820;8.682;2022-08-01T05:48:10;14.13;;;5.53;;
11024;SDS011;22890;51.820;8.682;2022-08-01T05:50:37;7.97;;;5.50;;
11024;SDS011;22890;51.820;8.682;2022-08-01T05:53:03;7.67;;;4.87;;
11024;SDS011;22890;51.820;8.682;2022-08-01T05:55:30;7.73;;;5.20;;
11024;SDS011;22890;51.820;8.682;2022-08-01T05:57:57;5.23;;;4.27;;
11024;SDS011;22890;51.820;8.682;2022-08-01T06:00:23;4.83;;;3.60;;
11024;SDS011;22890;51.820;8.682;2022-08-01T06:02:50;7.40;;;4.00;;
11024;SDS011;22890;51.820;8.682;2022-08-01T06:05:17;9.57;;;3.93;;
11024;SDS011;22890;51.820;8.682;2022-08-01T06:07:43;4.40;;;3.63;;
11024;SDS011;22890;51.820;8.682;2022-08-01T06:10:10;6.27;;;4.33;;
11024;SDS011;22890;51.820;8.682;2022-08-01T06:12:37;5.30;;;3.77;;
11024;SDS011;22890;51.820;8.682;2022-08-01T06:15:04;5.10;;;3.73;;
11024;SDS011;22890;51.820;8.682;2022-08-01T06:17:31;5.00;;;4.50;;
11024;SDS011;22890;51.820;8.682;2022-08-01T06:19:58;6.57;;;3.70;;
11024;SDS011;22890;51.820;8.682;2022-08-01T06:22:25;4.10;;;3.40;;
11024;SDS011;22890;51.820;8.682;2022-08-01T06:24:53;6.47;;;4.10;;
11024;SDS011;22890;51.820;8.682;2022-08-01T06:27:19;4.63;;;3.93;;
11024;SDS011;22890;51.820;8.682;2022-08-01T06:29:48;6.43;;;3.60;;
11024;SDS011;22890;51.820;8.682;2022-08-01T06:32:19;5.87;;;3.80;;
11024;SDS011;22890;51.820;8.682;2022-08-01T06:34:52;4.40;;;4.00;;
11024;SDS011;22890;51.820;8.682;2022-08-01T06:37:18;5.47;;;4.00;;
11024;SDS011;22890;51.820;8.682;2022-08-01T06:39:45;5.60;;;4.13;;
11024;SDS011;22890;51.820;8.682;2022-08-01T06:42:12;5.97;;;4.40;;
11024;SDS011;22890;51.820;8.682;2022-08-01T06:44:41;5.53;;;4.10;;
11024;SDS011;22890;51.820;8.682;2022-08-01T06:47:07;5.17;;;4.17;;
11024;SDS011;22890;51.820;8.682;2022-08-01T06:49:34;7.20;;;4.27;;
11024;SDS011;22890;51.820;8.682;2022-08-01T06:52:01;10.93;;;5.47;;
11024;SDS011;22890;51.820;8.682;2022-08-01T06:54:29;6.73;;;4.20;;
11024;SDS011;22890;51.820;8.682;2022-08-01T06:56:56;7.00;;;4.40;;
11024;SDS011;22890;51.820;8.682;2022-08-01T06:59:22;4.23;;;3.77;;
11024;SDS011;22890;51.820;8.682;2022-08-01T07:01:49;8.10;;;4.63;;
11024;SDS011;22890;51.820;8.682;2022-08-01T07:04:16;5.23;;;4.00;;
11024;SDS011;22890;51.820;8.682;2022-08-01T07:06:42;5.10;;;4.17;;
11024;SDS011;22890;51.820;8.682;2022-08-01T07:09:09;7.00;;;4.33;;
11024;SDS011;22890;51.820;8.682;2022-08-01T07:11:40;4.70;;;3.87;;
11024;SDS011;22890;51.820;8.682;2022-08-01T07:14:07;4.53;;;4.00;;
11024;SDS011;22890;51.820;8.682;2022-08-01T07:16:34;5.20;;;4.17;;
11024;SDS011;22890;51.820;8.682;2022-08-01T07:19:01;4.03;;;3.63;;
11024;SDS011;22890;51.820;8.682;2022-08-01T07:21:27;5.10;;;4.57;;
11024;SDS011;22890;51.820;8.682;2022-08-01T07:24:06;7.23;;;4.37;;
11024;SDS011;22890;51.820;8.682;2022-08-01T07:26:43;4.27;;;3.87;;
11024;SDS011;22890;51.820;8.682;2022-08-01T07:29:20;8.20;;;5.17;;
11024;SDS011;22890;51.820;8.682;2022-08-01T07:31:48;6.47;;;5.27;;
11024;SDS011;22890;51.820;8.682;2022-08-01T07:34:15;6.17;;;4.17;;
11024;SDS011;22890;51.820;8.682;2022-08-01T07:36:42;5.93;;;4.57;;
11024;SDS011;22890;51.820;8.682;2022-08-01T07:39:08;7.73;;;5.40;;
11024;SDS011;22890;51.820;8.682;2022-08-01T07:41:35;6.60;;;5.57;;
11024;SDS011;22890;51.820;8.682;2022-08-01T07:44:22;7.77;;;4.53;;
11024;SDS011;22890;51.820;8.682;2022-08-01T07:46:48;5.70;;;4.73;;
11024;SDS011;22890;51.820;8.682;2022-08-01T07:49:15;6.50;;;5.20;;
11024;SDS011;22890;51.820;8.682;2022-08-01T07:51:42;5.43;;;4.87;;
11024;SDS011;22890;51.820;8.682;2022-08-01T07:54:28;6.53;;;5.60;;
11024;SDS011;22890;51.820;8.682;2022-08-01T07:56:59;5.37;;;4.60;;
11024;SDS011;22890;51.820;8.682;2022-08-01T07:59:26;6.93;;;4.97;;
11024;SDS011;22890;51.820;8.682;2022-08-01T08:01:52;8.00;;;5.50;;
11024;SDS011;22890;51.820;8.682;2022-08-01T08:04:19;7.03;;;5.03;;
11024;SDS011;22890;51.820;8.682;2022-08-01T08:06:46;6.80;;;5.00;;
11024;SDS011;22890;51.820;8.682;2022-08-01T08:09:13;5.37;;;4.53;;
11024;SDS011;22890;51.820;8.682;2022-08-01T08:11:41;5.83;;;4.73;;
11024;SDS011;22890;51.820;8.682;2022-08-01T08:14:13;4.23;;;3.83;;
11024;SDS011;22890;51.820;8.682;2022-08-01T08:16:41;4.70;;;4.30;;
11024;SDS011;22890;51.820;8.682;2022-08-01T08:19:09;5.33;;;4.83;;
11024;SDS011;22890;51.820;8.682;2022-08-01T08:21:36;5.20;;;4.57;;
11024;SDS011;22890;51.820;8.682;2022-08-01T08:24:03;6.50;;;4.40;;
11024;SDS011;22890;51.820;8.682;2022-08-01T08:26:53;5.33;;;4.53;;
11024;SDS011;22890;51.820;8.682;2022-08-01T08:29:21;5.07;;;4.57;;
11024;SDS011;22890;51.820;8.682;2022-08-01T08:31:49;4.90;;;4.40;;
11024;SDS011;22890;51.820;8.682;2022-08-01T08:34:18;8.73;;;4.10;;
11024;SDS011;22890;51.820;8.682;2022-08-01T08:36:45;5.13;;;4.63;;
11024;SDS011;22890;51.820;8.682;2022-08-01T08:39:14;5.63;;;4.67;;
11024;SDS011;22890;51.820;8.682;2022-08-01T08:41:45;4.77;;;4.30;;
11024;SDS011;22890;51.820;8.682;2022-08-01T08:44:15;6.90;;;4.77;;
11024;SDS011;22890;51.820;8.682;2022-08-01T08:46:44;5.17;;;4.63;;
11024;SDS011;22890;51.820;8.682;2022-08-01T08:49:15;5.40;;;4.83;;
11024;SDS011;22890;51.820;8.682;2022-08-01T08:51:44;5.43;;;4.70;;
11024;SDS011;22890;51.820;8.682;2022-08-01T08:54:17;4.40;;;3.30;;
11024;SDS011;22890;51.820;8.682;2022-08-01T08:56:46;3.17;;;2.70;;
11024;SDS011;22890;51.820;8.682;2022-08-01T08:59:13;3.87;;;2.40;;
11024;SDS011;22890;51.820;8.682;2022-08-01T09:01:41;2.30;;;2.10;;
11024;SDS011;22890;51.820;8.682;2022-08-01T09:04:08;2.13;;;1.60;;
11024;SDS011;22890;51.820;8.682;2022-08-01T09:06:35;2.00;;;1.60;;
11024;SDS011;22890;51.820;8.682;2022-08-01T09:09:03;1.50;;;1.40;;
11024;SDS011;22890;51.820;8.682;2022-08-01T09:11:30;1.20;;;1.07;;
11024;SDS011;22890;51.820;8.682;2022-08-01T09:14:04;0.90;;;0.90;;
11024;SDS011;22890;51.820;8.682;2022-08-01T09:16:59;1.13;;;1.10;;
11024;SDS011;22890;51.820;8.682;2022-08-01T09:19:45;0.93;;;0.93;;
11024;SDS011;22890;51.820;8.682;2022-08-01T09:22:15;1.17;;;1.07;;
11024;SDS011;22890;51.820;8.682;2022-08-01T09:25:03;1.73;;;1.23;;
11024;SDS011;22890;51.820;8.682;2022-08-01T09:27:35;1.87;;;1.10;;
11024;SDS011;22890;51.820;8.682;2022-08-01T09:32:57;0.90;;;0.90;;
11024;SDS011;22890;51.820;8.682;2022-08-01T09:35:43;2.10;;;1.20;;
11024;SDS011;22890;51.820;8.682;2022-08-01T09:40:43;1.63;;;1.53;;
11024;SDS011;22890;51.820;8.682;2022-08-01T09:43:11;6.27;;;2.20;;
11024;SDS011;22890;51.820;8.682;2022-08-01T09:45:40;2.13;;;1.80;;
11024;SDS011;22890;51.820;8.682;2022-08-01T09:48:14;1.87;;;1.40;;
11024;SDS011;22890;51.820;8.682;2022-08-01T09:50:46;2.03;;;1.83;;
11024;SDS011;22890;51.820;8.682;2022-08-01T09:53:14;2.23;;;1.27;;
11024;SDS011;22890;51.820;8.682;2022-08-01T09:56:01;1.83;;;1.43;;
11024;SDS011;22890;51.820;8.682;2022-08-01T10:01:26;3.60;;;1.10;;
11024;SDS011;22890;51.820;8.682;2022-08-01T10:04:14;2.53;;;1.50;;
11024;SDS011;22890;51.820;8.682;2022-08-01T10:06:43;1.73;;;1.30;;
11024;SDS011;22890;51.820;8.682;2022-08-01T10:09:12;1.93;;;1.17;;
11024;SDS011;22890;51.820;8.682;2022-08-01T10:11:43;1.73;;;1.10;;
11024;SDS011;22890;51.820;8.682;2022-08-01T10:14:10;3.20;;;1.00;;
11024;SDS011;22890;51.820;8.682;2022-08-01T10:16:43;1.73;;;1.40;;
11024;SDS011;22890;51.820;8.682;2022-08-01T10:19:19;1.80;;;1.17;;
11024;SDS011;22890;51.820;8.682;2022-08-01T10:21:48;5.17;;;1.17;;
11024;SDS011;22890;51.820;8.682;2022-08-01T10:24:25;1.67;;;0.97;;
11024;SDS011;22890;51.820;8.682;2022-08-01T10:26:58;1.10;;;1.10;;
11024;SDS011;22890;51.820;8.682;2022-08-01T10:29:35;0.93;;;0.93;;
11024;SDS011;22890;51.820;8.682;2022-08-01T10:32:25;1.17;;;1.00;;
11024;SDS011;22890;51.820;8.682;2022-08-01T10:34:54;0.80;;;0.80;;
11024;SDS011;22890;51.820;8.682;2022-08-01T10:37:21;1.87;;;1.10;;
11024;SDS011;22890;51.820;8.682;2022-08-01T10:39:52;1.57;;;1.10;;
11024;SDS011;22890;51.820;8.682;2022-08-01T10:42:41;3.43;;;2.57;;
11024;SDS011;22890;51.820;8.682;2022-08-01T10:45:10;1.50;;;1.40;;
11024;SDS011;22890;51.820;8.682;2022-08-01T10:47:45;1.00;;;1.00;;
11024;SDS011;22890;51.820;8.682;2022-08-01T10:50:21;1.40;;;1.10;;
11024;SDS011;22890;51.820;8.682;2022-08-01T10:58:27;2.57;;;2.37;;
11024;SDS011;22890;51.820;8.682;2022-08-01T11:01:24;3.40;;;2.30;;
11024;SDS011;22890;51.820;8.682;2022-08-01T11:04:04;2.00;;;1.70;;
11024;SDS011;22890;51.820;8.682;2022-08-01T11:09:22;5.63;;;2.40;;
11024;SDS011;22890;51.820;8.682;2022-08-01T11:17:30;3.07;;;2.03;;
11024;SDS011;22890;51.820;8.682;2022-08-01T11:20:18;2.10;;;2.00;;
11024;SDS011;22890;51.820;8.682;2022-08-01T11:28:24;2.47;;;2.00;;
11024;SDS011;22890;51.820;8.682;2022-08-01T11:41:21;2.03;;;1.40;;
11024;SDS011;22890;51.820;8.682;2022-08-01T11:44:04;1.50;;;1.40;;
11024;SDS011;22890;51.820;8.682;2022-08-01T11:46:53;1.93;;;1.30;;
11024;SDS011;22890;51.820;8.682;2022-08-01T11:49:32;1.67;;;1.57;;
11024;SDS011;22890;51.820;8.682;2022-08-01T11:54:54;1.87;;;1.77;;
11024;SDS011;22890;51.820;8.682;2022-08-01T11:57:26;1.83;;;1.50;;
11024;SDS011;22890;51.820;8.682;2022-08-01T12:00:00;1.60;;;1.03;;
11024;SDS011;22890;51.820;8.682;2022-08-01T12:02:40;1.10;;;0.77;;
11024;SDS011;22890;51.820;8.682;2022-08-01T12:05:08;0.80;;;0.80;;
11024;SDS011;22890;51.820;8.682;2022-08-01T12:07:39;1.30;;;1.20;;
11024;SDS011;22890;51.820;8.682;2022-08-01T12:10:11;1.13;;;1.10;;
11024;SDS011;22890;51.820;8.682;2022-08-01T12:12:42;1.10;;;1.00;;
11024;SDS011;22890;51.820;8.682;2022-08-01T12:15:11;3.60;;;1.50;;
11024;SDS011;22890;51.820;8.682;2022-08-01T12:17:42;2.93;;;1.37;;
11024;SDS011;22890;51.820;8.682;2022-08-01T12:20:28;1.80;;;1.70;;
11024;SDS011;22890;51.820;8.682;2022-08-01T12:22:58;1.87;;;1.77;;
11024;SDS011;22890;51.820;8.682;2022-08-01T12:25:35;2.80;;;2.03;;
11024;SDS011;22890;51.820;8.682;2022-08-01T12:28:03;2.40;;;2.20;;
11024;SDS011;22890;51.820;8.682;2022-08-01T12:30:32;2.77;;;2.30;;
11024;SDS011;22890;51.820;8.682;2022-08-01T12:33:03;2.57;;;2.20;;
11024;SDS011;22890;51.820;8.682;2022-08-01T12:35:32;1.90;;;1.80;;
11024;SDS011;22890;51.820;8.682;2022-08-01T12:38:00;1.60;;;1.50;;
11024;SDS011;22890;51.820;8.682;2022-08-01T12:40:30;4.77;;;1.60;;
11024;SDS011;22890;51.820;8.682;2022-08-01T12:43:07;1.47;;;1.37;;
11024;SDS011;22890;51.820;8.682;2022-08-01T12:45:44;1.13;;;1.10;;
11024;SDS011;22890;51.820;8.682;2022-08-01T12:48:22;1.83;;;1.30;;
11024;SDS011;22890;51.820;8.682;2022-08-01T12:50:49;4.57;;;1.87;;
11024;SDS011;22890;51.820;8.682;2022-08-01T12:53:18;1.73;;;1.53;;
11024;SDS011;22890;51.820;8.682;2022-08-01T12:55:51;1.50;;;1.40;;
11024;SDS011;22890;51.820;8.682;2022-08-01T12:58:29;1.73;;;1.60;;
11024;SDS011;22890;51.820;8.682;2022-08-01T13:01:05;4.63;;;1.57;;
11024;SDS011;22890;51.820;8.682;2022-08-01T13:03:34;1.63;;;1.53;;
11024;SDS011;22890;51.820;8.682;2022-08-01T13:06:01;1.53;;;1.30;;
11024;SDS011;22890;51.820;8.682;2022-08-01T13:08:37;1.97;;;1.77;;
11024;SDS011;22890;51.820;8.682;2022-08-01T13:11:11;2.90;;;1.60;;
11024;SDS011;22890;51.820;8.682;2022-08-01T13:13:47;2.70;;;1.83;;
11024;SDS011;22890;51.820;8.682;2022-08-01T13:16:18;1.87;;;1.77;;
11024;SDS011;22890;51.820;8.682;2022-08-01T13:19:07;2.70;;;1.80;;
11024;SDS011;22890;51.820;8.682;2022-08-01T13:21:34;1.80;;;1.70;;
11024;SDS011;22890;51.820;8.682;2022-08-01T13:24:23;1.50;;;1.40;;
11024;SDS011;22890;51.820;8.682;2022-08-01T13:26:53;2.10;;;1.90;;
11024;SDS011;22890;51.820;8.682;2022-08-01T13:29:31;2.43;;;1.70;;
11024;SDS011;22890;51.820;8.682;2022-08-01T13:32:12;2.97;;;1.80;;
11024;SDS011;22890;51.820;8.682;2022-08-01T13:35:29;4.37;;;2.27;;
11024;SDS011;22890;51.820;8.682;2022-08-01T13:37:48;2.67;;;2.10;;
11024;SDS011;22890;51.820;8.682;2022-08-01T13:40:22;6.20;;;2.43;;
11024;SDS011;22890;51.820;8.682;2022-08-01T13:42:51;4.93;;;2.30;;
11024;SDS011;22890;51.820;8.682;2022-08-01T13:45:18;3.13;;;2.33;;
11024;SDS011;22890;51.820;8.682;2022-08-01T13:47:47;2.17;;;1.97;;
11024;SDS011;22890;51.820;8.682;2022-08-01T13:50:34;3.30;;;2.43;;
11024;SDS011;22890;51.820;8.682;2022-08-01T13:53:01;4.13;;;2.17;;
11024;SDS011;22890;51.820;8.682;2022-08-01T13:55:28;2.97;;;2.70;;
11024;SDS011;22890;51.820;8.682;2022-08-01T13:58:00;2.67;;;2.47;;
11024;SDS011;22890;51.820;8.682;2022-08-01T14:00:26;2.63;;;2.20;;
11024;SDS011;22890;51.820;8.682;2022-08-01T14:02:53;3.03;;;1.97;;
11024;SDS011;22890;51.820;8.682;2022-08-01T14:05:19;3.03;;;2.10;;
11024;SDS011;22890;51.820;8.682;2022-08-01T14:07:46;4.07;;;2.00;;
11024;SDS011;22890;51.820;8.682;2022-08-01T14:10:13;2.53;;;2.07;;
11024;SDS011;22890;51.820;8.682;2022-08-01T14:12:45;3.33;;;1.77;;
11024;SDS011;22890;51.820;8.682;2022-08-01T14:15:13;4.40;;;1.63;;
11024;SDS011;22890;51.820;8.682;2022-08-01T14:18:00;2.30;;;1.70;;
11024;SDS011;22890;51.820;8.682;2022-08-01T14:20:27;1.50;;;1.40;;
11024;SDS011;22890;51.820;8.682;2022-08-01T14:22:54;1.47;;;1.10;;
11024;SDS011;22890;51.820;8.682;2022-08-01T14:25:21;2.27;;;1.20;;
11024;SDS011;22890;51.820;8.682;2022-08-01T14:28:07;1.80;;;1.33;;
11024;SDS011;22890;51.820;8.682;2022-08-01T14:30:34;1.67;;;1.30;;
11024;SDS011;22890;51.820;8.682;2022-08-01T14:33:00;2.07;;;1.53;;
11024;SDS011;22890;51.820;8.682;2022-08-01T14:35:27;1.50;;;1.40;;
11024;SDS011;22890;51.820;8.682;2022-08-01T14:38:13;2.00;;;1.67;;
11024;SDS011;22890;51.820;8.682;2022-08-01T14:40:56;2.37;;;1.80;;
11024;SDS011;22890;51.820;8.682;2022-08-01T14:43:22;5.00;;;1.80;;
11024;SDS011;22890;51.820;8.682;2022-08-01T14:45:58;6.20;;;2.03;;
11024;SDS011;22890;51.820;8.682;2022-08-01T14:48:24;2.37;;;1.87;;
11024;SDS011;22890;51.820;8.682;2022-08-01T14:50:51;3.20;;;2.10;;
11024;SDS011;22890;51.820;8.682;2022-08-01T14:53:18;4.13;;;1.50;;
11024;SDS011;22890;51.820;8.682;2022-08-01T14:55:44;1.87;;;1.77;;
11024;SDS011;22890;51.820;8.682;2022-08-01T14:58:11;4.43;;;1.77;;
11024;SDS011;22890;51.820;8.682;2022-08-01T15:00:38;3.60;;;1.57;;
11024;SDS011;22890;51.820;8.682;2022-08-01T15:03:04;1.60;;;1.40;;
11024;SDS011;22890;51.820;8.682;2022-08-01T15:05:31;6.30;;;1.57;;
11024;SDS011;22890;51.820;8.682;2022-08-01T15:07:58;2.53;;;1.60;;
11024;SDS011;22890;51.820;8.682;2022-08-01T15:10:25;4.73;;;1.90;;
11024;SDS011;22890;51.820;8.682;2022-08-01T15:12:52;2.00;;;1.50;;
11024;SDS011;22890;51.820;8.682;2022-08-01T15:15:19;8.53;;;1.83;;
11024;SDS011;22890;51.820;8.682;2022-08-01T15:17:46;2.90;;;1.80;;
11024;SDS011;22890;51.820;8.682;2022-08-01T15:20:12;1.80;;;1.70;;
11024;SDS011;22890;51.820;8.682;2022-08-01T15:22:39;2.63;;;1.50;;
11024;SDS011;22890;51.820;8.682;2022-08-01T15:25:06;2.20;;;1.80;;
11024;SDS011;22890;51.820;8.682;2022-08-01T15:27:32;2.60;;;1.50;;
11024;SDS011;22890;51.820;8.682;2022-08-01T15:29:59;18.60;;;1.93;;
11024;SDS011;22890;51.820;8.682;2022-08-01T15:32:26;1.70;;;1.60;;
11024;SDS011;22890;51.820;8.682;2022-08-01T15:34:52;2.60;;;1.70;;
11024;SDS011;22890;51.820;8.682;2022-08-01T15:37:20;6.00;;;1.87;;
11024;SDS011;22890;51.820;8.682;2022-08-01T15:39:47;2.43;;;1.90;;
11024;SDS011;22890;51.820;8.682;2022-08-01T15:42:15;2.07;;;1.70;;
11024;SDS011;22890;51.820;8.682;2022-08-01T15:44:48;3.03;;;1.33;;
11024;SDS011;22890;51.820;8.682;2022-08-01T15:47:15;2.63;;;1.90;;
11024;SDS011;22890;51.820;8.682;2022-08-01T15:49:42;6.83;;;2.37;;
11024;SDS011;22890;51.820;8.682;2022-08-01T15:52:08;4.87;;;2.03;;
11024;SDS011;22890;51.820;8.682;2022-08-01T15:54:47;3.33;;;2.40;;
11024;SDS011;22890;51.820;8.682;2022-08-01T15:57:14;2.30;;;2.10;;
11024;SDS011;22890;51.820;8.682;2022-08-01T15:59:40;4.67;;;2.80;;
11024;SDS011;22890;51.820;8.682;2022-08-01T16:02:07;2.70;;;2.50;;
11024;SDS011;22890;51.820;8.682;2022-08-01T16:04:35;2.40;;;2.20;;